sensor_id;sensor_type;location;lat;lon;timestamp;P1;durP1;ratioP1;P2;durP2;ratioP2
71351;SDS011;59159;51.652;4.864;2022-09-01T00:01:44;3.10;;;0.80;;
71351;SDS011;59159;51.652;4.864;2022-09-01T00:04:12;3.03;;;0.90;;
71351;SDS011;59159;51.652;4.864;2022-09-01T00:06:40;3.58;;;0.80;;
71351;SDS011;59159;51.652;4.864;2022-09-01T00:09:10;3.13;;;0.80;;
71351;SDS011;59159;51.652;4.864;2022-09-01T00:11:38;5.20;;;0.88;;
71351;SDS011;59159;51.652;4.864;2022-09-01T00:14:04;3.57;;;0.90;;
71351;SDS011;59159;51.652;4.864;2022-09-01T00:16:31;2.78;;;1.00;;
71351;SDS011;59159;51.652;4.864;2022-09-01T00:18:57;3.63;;;0.90;;
71351;SDS011;59159;51.652;4.864;2022-09-01T00:21:24;3.87;;;0.90;;
71351;SDS011;59159;51.652;4.864;2022-09-01T00:23:51;2.67;;;0.70;;
71351;SDS011;59159;51.652;4.864;2022-09-01T00:26:17;3.50;;;1.00;;
71351;SDS011;59159;51.652;4.864;2022-09-01T00:28:43;3.60;;;0.90;;
71351;SDS011;59159;51.652;4.864;2022-09-01T00:31:09;3.47;;;0.90;;
71351;SDS011;59159;51.652;4.864;2022-09-01T00:33:35;2.83;;;0.90;;
71351;SDS011;59159;51.652;4.864;2022-09-01T00:36:02;3.95;;;0.90;;
71351;SDS011;59159;51.652;4.864;2022-09-01T00:38:29;3.70;;;1.23;;
71351;SDS011;59159;51.652;4.864;2022-09-01T00:40:55;2.78;;;0.95;;
71351;SDS011;59159;51.652;4.864;2022-09-01T00:43:23;3.58;;;1.00;;
71351;SDS011;59159;51.652;4.864;2022-09-01T00:46:00;3.43;;;0.90;;
71351;SDS011;59159;51.652;4.864;2022-09-01T00:48:26;2.75;;;0.80;;
71351;SDS011;59159;51.652;4.864;2022-09-01T00:50:52;2.90;;;0.82;;
71351;SDS011;59159;51.652;4.864;2022-09-01T00:53:18;3.50;;;0.90;;
71351;SDS011;59159;51.652;4.864;2022-09-01T00:55:44;2.78;;;0.80;;
71351;SDS011;59159;51.652;4.864;2022-09-01T00:58:10;2.33;;;0.77;;
71351;SDS011;59159;51.652;4.864;2022-09-01T01:00:37;3.35;;;0.80;;
71351;SDS011;59159;51.652;4.864;2022-09-01T01:03:05;3.73;;;0.80;;
71351;SDS011;59159;51.652;4.864;2022-09-01T01:05:32;3.00;;;0.88;;
71351;SDS011;59159;51.652;4.864;2022-09-01T01:08:01;3.10;;;0.90;;
71351;SDS011;59159;51.652;4.864;2022-09-01T01:10:28;3.90;;;1.00;;
71351;SDS011;59159;51.652;4.864;2022-09-01T01:12:56;3.70;;;0.90;;
71351;SDS011;59159;51.652;4.864;2022-09-01T01:15:26;2.72;;;0.88;;
71351;SDS011;59159;51.652;4.864;2022-09-01T01:17:52;3.07;;;0.70;;
71351;SDS011;59159;51.652;4.864;2022-09-01T01:20:18;3.88;;;0.85;;
71351;SDS011;59159;51.652;4.864;2022-09-01T01:26:06;2.80;;;0.98;;
71351;SDS011;59159;51.652;4.864;2022-09-01T01:28:34;2.30;;;0.77;;
71351;SDS011;59159;51.652;4.864;2022-09-01T01:31:05;3.40;;;0.90;;
71351;SDS011;59159;51.652;4.864;2022-09-01T01:33:37;3.13;;;0.65;;
71351;SDS011;59159;51.652;4.864;2022-09-01T01:36:05;2.83;;;0.90;;
71351;SDS011;59159;51.652;4.864;2022-09-01T01:38:31;3.92;;;1.00;;
71351;SDS011;59159;51.652;4.864;2022-09-01T01:41:00;3.45;;;1.00;;
71351;SDS011;59159;51.652;4.864;2022-09-01T01:43:26;3.87;;;1.00;;
71351;SDS011;59159;51.652;4.864;2022-09-01T01:45:53;2.45;;;0.90;;
71351;SDS011;59159;51.652;4.864;2022-09-01T01:48:21;3.85;;;0.90;;
71351;SDS011;59159;51.652;4.864;2022-09-01T01:50:50;3.60;;;0.80;;
71351;SDS011;59159;51.652;4.864;2022-09-01T01:53:16;2.47;;;0.73;;
71351;SDS011;59159;51.652;4.864;2022-09-01T01:55:43;2.53;;;0.80;;
71351;SDS011;59159;51.652;4.864;2022-09-01T01:58:09;3.08;;;0.90;;
71351;SDS011;59159;51.652;4.864;2022-09-01T02:00:36;2.47;;;0.73;;
71351;SDS011;59159;51.652;4.864;2022-09-01T02:03:02;3.15;;;0.80;;
71351;SDS011;59159;51.652;4.864;2022-09-01T02:05:32;2.55;;;0.73;;
71351;SDS011;59159;51.652;4.864;2022-09-01T02:08:01;4.47;;;1.30;;
71351;SDS011;59159;51.652;4.864;2022-09-01T02:10:29;2.78;;;0.60;;
71351;SDS011;59159;51.652;4.864;2022-09-01T02:12:57;2.60;;;0.70;;
71351;SDS011;59159;51.652;4.864;2022-09-01T02:15:28;4.55;;;0.80;;
71351;SDS011;59159;51.652;4.864;2022-09-01T02:17:54;3.30;;;0.60;;
71351;SDS011;59159;51.652;4.864;2022-09-01T02:20:24;2.13;;;0.80;;
71351;SDS011;59159;51.652;4.864;2022-09-01T02:22:53;4.13;;;1.10;;
71351;SDS011;59159;51.652;4.864;2022-09-01T02:25:20;3.80;;;1.00;;
71351;SDS011;59159;51.652;4.864;2022-09-01T02:27:46;3.25;;;0.80;;
71351;SDS011;59159;51.652;4.864;2022-09-01T02:30:19;2.65;;;0.70;;
71351;SDS011;59159;51.652;4.864;2022-09-01T02:32:46;2.87;;;0.90;;
71351;SDS011;59159;51.652;4.864;2022-09-01T02:35:12;1.98;;;0.68;;
71351;SDS011;59159;51.652;4.864;2022-09-01T02:37:38;3.05;;;0.90;;
71351;SDS011;59159;51.652;4.864;2022-09-01T02:40:07;2.95;;;0.82;;
71351;SDS011;59159;51.652;4.864;2022-09-01T02:42:37;3.23;;;0.80;;
71351;SDS011;59159;51.652;4.864;2022-09-01T02:45:05;3.05;;;0.80;;
71351;SDS011;59159;51.652;4.864;2022-09-01T02:47:36;2.22;;;0.80;;
71351;SDS011;59159;51.652;4.864;2022-09-01T02:50:06;2.80;;;0.80;;
71351;SDS011;59159;51.652;4.864;2022-09-01T02:52:37;2.55;;;0.85;;
71351;SDS011;59159;51.652;4.864;2022-09-01T02:55:04;2.63;;;0.80;;
71351;SDS011;59159;51.652;4.864;2022-09-01T02:57:30;3.00;;;0.80;;
71351;SDS011;59159;51.652;4.864;2022-09-01T02:59:58;2.53;;;0.80;;
71351;SDS011;59159;51.652;4.864;2022-09-01T03:02:24;3.10;;;0.88;;
71351;SDS011;59159;51.652;4.864;2022-09-01T03:04:52;3.53;;;0.90;;
71351;SDS011;59159;51.652;4.864;2022-09-01T03:07:19;4.30;;;0.90;;
71351;SDS011;59159;51.652;4.864;2022-09-01T03:09:47;2.92;;;0.80;;
71351;SDS011;59159;51.652;4.864;2022-09-01T03:12:13;2.50;;;0.70;;
71351;SDS011;59159;51.652;4.864;2022-09-01T03:14:39;4.17;;;1.37;;
71351;SDS011;59159;51.652;4.864;2022-09-01T03:17:06;2.60;;;0.70;;
71351;SDS011;59159;51.652;4.864;2022-09-01T03:19:32;3.47;;;1.00;;
71351;SDS011;59159;51.652;4.864;2022-09-01T03:22:04;2.97;;;0.80;;
71351;SDS011;59159;51.652;4.864;2022-09-01T03:24:30;3.22;;;0.70;;
71351;SDS011;59159;51.652;4.864;2022-09-01T03:26:56;2.75;;;0.80;;
71351;SDS011;59159;51.652;4.864;2022-09-01T03:29:22;3.25;;;0.98;;
71351;SDS011;59159;51.652;4.864;2022-09-01T03:31:48;3.80;;;0.90;;
71351;SDS011;59159;51.652;4.864;2022-09-01T03:34:15;2.90;;;0.80;;
71351;SDS011;59159;51.652;4.864;2022-09-01T03:36:44;3.38;;;0.73;;
71351;SDS011;59159;51.652;4.864;2022-09-01T03:39:14;2.10;;;0.70;;
71351;SDS011;59159;51.652;4.864;2022-09-01T03:41:41;3.38;;;1.00;;
71351;SDS011;59159;51.652;4.864;2022-09-01T03:44:07;3.50;;;0.80;;
71351;SDS011;59159;51.652;4.864;2022-09-01T03:46:36;2.43;;;0.80;;
71351;SDS011;59159;51.652;4.864;2022-09-01T03:49:04;2.97;;;0.70;;
71351;SDS011;59159;51.652;4.864;2022-09-01T03:51:32;2.95;;;0.80;;
71351;SDS011;59159;51.652;4.864;2022-09-01T03:53:58;3.85;;;0.98;;
71351;SDS011;59159;51.652;4.864;2022-09-01T03:56:25;3.70;;;0.90;;
71351;SDS011;59159;51.652;4.864;2022-09-01T03:58:52;8.25;;;1.10;;
71351;SDS011;59159;51.652;4.864;2022-09-01T04:01:20;4.43;;;0.90;;
71351;SDS011;59159;51.652;4.864;2022-09-01T04:03:46;3.90;;;1.47;;
71351;SDS011;59159;51.652;4.864;2022-09-01T04:06:12;7.53;;;1.70;;
71351;SDS011;59159;51.652;4.864;2022-09-01T04:08:39;6.50;;;1.42;;
71351;SDS011;59159;51.652;4.864;2022-09-01T04:11:10;5.43;;;1.57;;
71351;SDS011;59159;51.652;4.864;2022-09-01T04:13:38;5.53;;;1.60;;
71351;SDS011;59159;51.652;4.864;2022-09-01T04:16:06;4.43;;;1.27;;
71351;SDS011;59159;51.652;4.864;2022-09-01T04:18:52;4.38;;;1.60;;
71351;SDS011;59159;51.652;4.864;2022-09-01T04:21:18;6.07;;;1.50;;
71351;SDS011;59159;51.652;4.864;2022-09-01T04:23:44;4.78;;;1.45;;
71351;SDS011;59159;51.652;4.864;2022-09-01T04:26:11;4.07;;;1.42;;
71351;SDS011;59159;51.652;4.864;2022-09-01T04:28:45;5.13;;;1.60;;
71351;SDS011;59159;51.652;4.864;2022-09-01T04:31:13;6.53;;;1.45;;
71351;SDS011;59159;51.652;4.864;2022-09-01T04:33:42;5.70;;;1.70;;
71351;SDS011;59159;51.652;4.864;2022-09-01T04:36:20;5.37;;;1.57;;
71351;SDS011;59159;51.652;4.864;2022-09-01T04:38:48;4.88;;;1.58;;
71351;SDS011;59159;51.652;4.864;2022-09-01T04:41:14;6.43;;;1.60;;
71351;SDS011;59159;51.652;4.864;2022-09-01T04:43:41;6.45;;;1.88;;
71351;SDS011;59159;51.652;4.864;2022-09-01T04:46:09;4.83;;;1.53;;
71351;SDS011;59159;51.652;4.864;2022-09-01T04:48:39;4.43;;;1.38;;
71351;SDS011;59159;51.652;4.864;2022-09-01T04:51:07;5.57;;;1.42;;
71351;SDS011;59159;51.652;4.864;2022-09-01T04:53:34;3.87;;;1.40;;
71351;SDS011;59159;51.652;4.864;2022-09-01T04:56:05;4.72;;;1.23;;
71351;SDS011;59159;51.652;4.864;2022-09-01T04:58:33;5.07;;;1.30;;
71351;SDS011;59159;51.652;4.864;2022-09-01T05:01:00;4.10;;;1.20;;
71351;SDS011;59159;51.652;4.864;2022-09-01T05:03:30;6.32;;;1.92;;
71351;SDS011;59159;51.652;4.864;2022-09-01T05:05:56;7.00;;;1.60;;
71351;SDS011;59159;51.652;4.864;2022-09-01T05:08:25;4.53;;;1.35;;
71351;SDS011;59159;51.652;4.864;2022-09-01T05:10:52;4.70;;;1.33;;
71351;SDS011;59159;51.652;4.864;2022-09-01T05:13:20;5.85;;;1.60;;
71351;SDS011;59159;51.652;4.864;2022-09-01T05:15:57;6.60;;;1.38;;
71351;SDS011;59159;51.652;4.864;2022-09-01T05:18:24;5.20;;;1.37;;
71351;SDS011;59159;51.652;4.864;2022-09-01T05:20:52;6.10;;;1.40;;
71351;SDS011;59159;51.652;4.864;2022-09-01T05:23:19;7.10;;;1.50;;
71351;SDS011;59159;51.652;4.864;2022-09-01T05:25:48;5.27;;;2.20;;
71351;SDS011;59159;51.652;4.864;2022-09-01T05:28:16;5.63;;;1.55;;
71351;SDS011;59159;51.652;4.864;2022-09-01T05:30:43;5.03;;;1.23;;
71351;SDS011;59159;51.652;4.864;2022-09-01T05:33:10;13.75;;;2.45;;
71351;SDS011;59159;51.652;4.864;2022-09-01T05:35:39;5.17;;;1.50;;
71351;SDS011;59159;51.652;4.864;2022-09-01T05:38:08;5.70;;;1.40;;
71351;SDS011;59159;51.652;4.864;2022-09-01T05:40:37;5.53;;;1.52;;
71351;SDS011;59159;51.652;4.864;2022-09-01T05:43:05;5.60;;;1.33;;
71351;SDS011;59159;51.652;4.864;2022-09-01T05:45:34;5.05;;;1.23;;
71351;SDS011;59159;51.652;4.864;2022-09-01T05:48:00;5.68;;;1.50;;
71351;SDS011;59159;51.652;4.864;2022-09-01T05:50:27;14.77;;;2.70;;
71351;SDS011;59159;51.652;4.864;2022-09-01T05:52:53;5.03;;;1.50;;
71351;SDS011;59159;51.652;4.864;2022-09-01T05:55:19;5.22;;;1.38;;
71351;SDS011;59159;51.652;4.864;2022-09-01T05:57:46;5.00;;;1.80;;
71351;SDS011;59159;51.652;4.864;2022-09-01T06:00:13;6.70;;;1.67;;
71351;SDS011;59159;51.652;4.864;2022-09-01T06:02:42;6.68;;;1.75;;
71351;SDS011;59159;51.652;4.864;2022-09-01T06:05:09;6.25;;;1.75;;
71351;SDS011;59159;51.652;4.864;2022-09-01T06:07:35;4.63;;;1.60;;
71351;SDS011;59159;51.652;4.864;2022-09-01T06:10:03;5.40;;;1.40;;
71351;SDS011;59159;51.652;4.864;2022-09-01T06:12:29;5.65;;;1.50;;
71351;SDS011;59159;51.652;4.864;2022-09-01T06:14:55;4.80;;;1.60;;
71351;SDS011;59159;51.652;4.864;2022-09-01T06:17:23;5.32;;;1.20;;
71351;SDS011;59159;51.652;4.864;2022-09-01T06:19:50;5.05;;;1.70;;
71351;SDS011;59159;51.652;4.864;2022-09-01T06:22:23;5.10;;;1.70;;
71351;SDS011;59159;51.652;4.864;2022-09-01T06:24:49;5.90;;;2.13;;
71351;SDS011;59159;51.652;4.864;2022-09-01T06:27:18;5.75;;;1.38;;
71351;SDS011;59159;51.652;4.864;2022-09-01T06:29:45;6.57;;;1.40;;
71351;SDS011;59159;51.652;4.864;2022-09-01T06:32:15;5.37;;;1.27;;
71351;SDS011;59159;51.652;4.864;2022-09-01T06:34:42;6.15;;;1.63;;
71351;SDS011;59159;51.652;4.864;2022-09-01T06:37:11;5.80;;;1.70;;
71351;SDS011;59159;51.652;4.864;2022-09-01T06:39:37;5.83;;;1.90;;
71351;SDS011;59159;51.652;4.864;2022-09-01T06:42:03;4.80;;;1.38;;
71351;SDS011;59159;51.652;4.864;2022-09-01T06:44:30;6.15;;;1.55;;
71351;SDS011;59159;51.652;4.864;2022-09-01T06:46:56;4.38;;;1.20;;
71351;SDS011;59159;51.652;4.864;2022-09-01T06:49:24;4.37;;;1.20;;
71351;SDS011;59159;51.652;4.864;2022-09-01T06:51:56;5.18;;;1.80;;
71351;SDS011;59159;51.652;4.864;2022-09-01T06:54:22;4.57;;;1.38;;
71351;SDS011;59159;51.652;4.864;2022-09-01T06:56:50;8.10;;;1.80;;
71351;SDS011;59159;51.652;4.864;2022-09-01T06:59:17;4.95;;;1.65;;
71351;SDS011;59159;51.652;4.864;2022-09-01T07:01:43;7.07;;;1.65;;
71351;SDS011;59159;51.652;4.864;2022-09-01T07:04:12;5.70;;;1.77;;
71351;SDS011;59159;51.652;4.864;2022-09-01T07:06:41;5.53;;;1.63;;
71351;SDS011;59159;51.652;4.864;2022-09-01T07:09:07;8.95;;;1.90;;
71351;SDS011;59159;51.652;4.864;2022-09-01T07:11:33;5.85;;;1.70;;
71351;SDS011;59159;51.652;4.864;2022-09-01T07:14:01;4.53;;;1.37;;
71351;SDS011;59159;51.652;4.864;2022-09-01T07:16:28;5.13;;;1.65;;
71351;SDS011;59159;51.652;4.864;2022-09-01T07:18:56;6.57;;;1.83;;
71351;SDS011;59159;51.652;4.864;2022-09-01T07:21:24;5.67;;;1.60;;
71351;SDS011;59159;51.652;4.864;2022-09-01T07:23:50;4.72;;;1.83;;
71351;SDS011;59159;51.652;4.864;2022-09-01T07:26:17;6.00;;;1.77;;
71351;SDS011;59159;51.652;4.864;2022-09-01T07:28:45;5.97;;;2.17;;
71351;SDS011;59159;51.652;4.864;2022-09-01T07:31:18;7.68;;;1.83;;
71351;SDS011;59159;51.652;4.864;2022-09-01T07:33:45;7.30;;;2.00;;
71351;SDS011;59159;51.652;4.864;2022-09-01T07:36:13;6.30;;;1.70;;
71351;SDS011;59159;51.652;4.864;2022-09-01T07:38:39;10.97;;;2.37;;
71351;SDS011;59159;51.652;4.864;2022-09-01T07:41:05;7.72;;;1.95;;
71351;SDS011;59159;51.652;4.864;2022-09-01T07:43:31;7.35;;;1.80;;
71351;SDS011;59159;51.652;4.864;2022-09-01T07:45:58;5.03;;;1.50;;
71351;SDS011;59159;51.652;4.864;2022-09-01T07:48:24;6.70;;;2.97;;
71351;SDS011;59159;51.652;4.864;2022-09-01T07:50:52;7.38;;;1.92;;
71351;SDS011;59159;51.652;4.864;2022-09-01T07:53:20;8.77;;;2.30;;
71351;SDS011;59159;51.652;4.864;2022-09-01T07:55:48;7.68;;;1.85;;
71351;SDS011;59159;51.652;4.864;2022-09-01T07:58:15;5.55;;;2.00;;
71351;SDS011;59159;51.652;4.864;2022-09-01T08:00:42;5.65;;;1.90;;
71351;SDS011;59159;51.652;4.864;2022-09-01T08:03:09;7.27;;;1.97;;
71351;SDS011;59159;51.652;4.864;2022-09-01T08:05:35;7.78;;;2.03;;
71351;SDS011;59159;51.652;4.864;2022-09-01T08:08:01;7.88;;;2.08;;
71351;SDS011;59159;51.652;4.864;2022-09-01T08:10:28;6.20;;;1.53;;
71351;SDS011;59159;51.652;4.864;2022-09-01T08:12:54;7.63;;;1.80;;
71351;SDS011;59159;51.652;4.864;2022-09-01T08:15:20;7.20;;;1.88;;
71351;SDS011;59159;51.652;4.864;2022-09-01T08:17:47;6.30;;;1.73;;
71351;SDS011;59159;51.652;4.864;2022-09-01T08:20:14;6.57;;;1.88;;
71351;SDS011;59159;51.652;4.864;2022-09-01T08:22:40;7.03;;;1.77;;
71351;SDS011;59159;51.652;4.864;2022-09-01T08:25:07;6.15;;;1.90;;
71351;SDS011;59159;51.652;4.864;2022-09-01T08:27:34;8.40;;;1.70;;
71351;SDS011;59159;51.652;4.864;2022-09-01T08:30:03;9.90;;;1.95;;
71351;SDS011;59159;51.652;4.864;2022-09-01T08:32:29;6.72;;;1.70;;
71351;SDS011;59159;51.652;4.864;2022-09-01T08:34:56;6.50;;;1.60;;
71351;SDS011;59159;51.652;4.864;2022-09-01T08:37:22;6.53;;;1.67;;
71351;SDS011;59159;51.652;4.864;2022-09-01T08:39:49;7.22;;;1.52;;
71351;SDS011;59159;51.652;4.864;2022-09-01T08:45:19;5.30;;;1.40;;
71351;SDS011;59159;51.652;4.864;2022-09-01T08:47:46;6.13;;;1.52;;
71351;SDS011;59159;51.652;4.864;2022-09-01T08:50:13;5.68;;;1.70;;
71351;SDS011;59159;51.652;4.864;2022-09-01T08:52:40;5.87;;;1.43;;
71351;SDS011;59159;51.652;4.864;2022-09-01T08:55:13;5.75;;;1.73;;
71351;SDS011;59159;51.652;4.864;2022-09-01T08:57:41;5.35;;;1.77;;
71351;SDS011;59159;51.652;4.864;2022-09-01T09:00:09;4.40;;;1.30;;
71351;SDS011;59159;51.652;4.864;2022-09-01T09:10:23;6.15;;;1.77;;
71351;SDS011;59159;51.652;4.864;2022-09-01T09:18:06;7.90;;;1.00;;
71351;SDS011;59159;51.652;4.864;2022-09-01T09:20:34;4.05;;;1.20;;
71351;SDS011;59159;51.652;4.864;2022-09-01T09:23:01;6.07;;;1.52;;
71351;SDS011;59159;51.652;4.864;2022-09-01T09:25:32;6.33;;;1.33;;
71351;SDS011;59159;51.652;4.864;2022-09-01T09:27:57;5.30;;;1.42;;
71351;SDS011;59159;51.652;4.864;2022-09-01T09:30:25;4.95;;;1.20;;
71351;SDS011;59159;51.652;4.864;2022-09-01T09:33:01;4.93;;;1.47;;
71351;SDS011;59159;51.652;4.864;2022-09-01T09:35:38;5.78;;;1.30;;
71351;SDS011;59159;51.652;4.864;2022-09-01T09:43:22;4.60;;;1.30;;
71351;SDS011;59159;51.652;4.864;2022-09-01T09:45:49;5.57;;;1.35;;
71351;SDS011;59159;51.652;4.864;2022-09-01T09:48:29;5.35;;;1.23;;
71351;SDS011;59159;51.652;4.864;2022-09-01T09:50:55;8.47;;;1.67;;
71351;SDS011;59159;51.652;4.864;2022-09-01T09:58:20;4.93;;;1.00;;
71351;SDS011;59159;51.652;4.864;2022-09-01T10:00:57;6.60;;;1.20;;
71351;SDS011;59159;51.652;4.864;2022-09-01T10:03:33;6.65;;;1.48;;
71351;SDS011;59159;51.652;4.864;2022-09-01T10:06:00;4.40;;;1.30;;
71351;SDS011;59159;51.652;4.864;2022-09-01T10:10:58;4.75;;;1.13;;
71351;SDS011;59159;51.652;4.864;2022-09-01T10:13:25;6.07;;;1.25;;
71351;SDS011;59159;51.652;4.864;2022-09-01T10:15:54;4.23;;;1.20;;
71351;SDS011;59159;51.652;4.864;2022-09-01T10:18:22;5.85;;;1.30;;
71351;SDS011;59159;51.652;4.864;2022-09-01T10:20:59;6.82;;;1.42;;
71351;SDS011;59159;51.652;4.864;2022-09-01T10:23:29;4.83;;;1.40;;
71351;SDS011;59159;51.652;4.864;2022-09-01T10:26:01;3.92;;;1.02;;
71351;SDS011;59159;51.652;4.864;2022-09-01T10:28:27;4.35;;;1.08;;
71351;SDS011;59159;51.652;4.864;2022-09-01T10:30:56;6.28;;;1.33;;
71351;SDS011;59159;51.652;4.864;2022-09-01T10:33:23;3.33;;;1.00;;
71351;SDS011;59159;51.652;4.864;2022-09-01T10:35:52;4.07;;;1.40;;
71351;SDS011;59159;51.652;4.864;2022-09-01T10:38:23;5.03;;;1.10;;
71351;SDS011;59159;51.652;4.864;2022-09-01T10:40:51;4.13;;;0.97;;
71351;SDS011;59159;51.652;4.864;2022-09-01T10:43:46;4.60;;;1.10;;
71351;SDS011;59159;51.652;4.864;2022-09-01T10:48:46;4.93;;;1.10;;
71351;SDS011;59159;51.652;4.864;2022-09-01T10:56:15;5.55;;;1.38;;
71351;SDS011;59159;51.652;4.864;2022-09-01T11:01:13;4.95;;;1.27;;
71351;SDS011;59159;51.652;4.864;2022-09-01T11:03:53;3.70;;;1.20;;
71351;SDS011;59159;51.652;4.864;2022-09-01T11:09:04;4.50;;;1.20;;
71351;SDS011;59159;51.652;4.864;2022-09-01T11:11:39;4.63;;;1.15;;
71351;SDS011;59159;51.652;4.864;2022-09-01T11:14:20;5.97;;;1.20;;
71351;SDS011;59159;51.652;4.864;2022-09-01T11:22:02;5.40;;;1.58;;
71351;SDS011;59159;51.652;4.864;2022-09-01T11:27:06;4.55;;;1.20;;
71351;SDS011;59159;51.652;4.864;2022-09-01T11:32:18;4.90;;;1.20;;
71351;SDS011;59159;51.652;4.864;2022-09-01T11:34:45;5.05;;;1.20;;
71351;SDS011;59159;51.652;4.864;2022-09-01T11:37:14;4.18;;;1.10;;
71351;SDS011;59159;51.652;4.864;2022-09-01T11:39:42;5.53;;;1.20;;
71351;SDS011;59159;51.652;4.864;2022-09-01T11:42:15;7.18;;;1.50;;
71351;SDS011;59159;51.652;4.864;2022-09-01T11:44:58;3.22;;;1.40;;
71351;SDS011;59159;51.652;4.864;2022-09-01T11:52:22;4.90;;;1.20;;
71351;SDS011;59159;51.652;4.864;2022-09-01T11:54:49;3.65;;;1.15;;
71351;SDS011;59159;51.652;4.864;2022-09-01T11:57:16;5.00;;;1.20;;
71351;SDS011;59159;51.652;4.864;2022-09-01T11:59:42;4.35;;;1.15;;
71351;SDS011;59159;51.652;4.864;2022-09-01T12:02:09;3.38;;;1.10;;
71351;SDS011;59159;51.652;4.864;2022-09-01T12:04:41;3.97;;;1.13;;
71351;SDS011;59159;51.652;4.864;2022-09-01T12:07:10;5.75;;;1.10;;
71351;SDS011;59159;51.652;4.864;2022-09-01T12:09:41;4.88;;;1.17;;
71351;SDS011;59159;51.652;4.864;2022-09-01T12:12:24;3.85;;;1.00;;
71351;SDS011;59159;51.652;4.864;2022-09-01T12:14:55;9.00;;;1.50;;
71351;SDS011;59159;51.652;4.864;2022-09-01T12:17:21;4.28;;;1.23;;
71351;SDS011;59159;51.652;4.864;2022-09-01T12:19:48;3.42;;;1.08;;
71351;SDS011;59159;51.652;4.864;2022-09-01T12:22:15;5.77;;;1.30;;
71351;SDS011;59159;51.652;4.864;2022-09-01T12:24:46;2.92;;;0.80;;
71351;SDS011;59159;51.652;4.864;2022-09-01T12:27:13;3.95;;;0.82;;
71351;SDS011;59159;51.652;4.864;2022-09-01T12:29:39;5.83;;;1.17;;
71351;SDS011;59159;51.652;4.864;2022-09-01T12:32:05;3.53;;;1.10;;
71351;SDS011;59159;51.652;4.864;2022-09-01T12:37:05;3.75;;;0.90;;
71351;SDS011;59159;51.652;4.864;2022-09-01T12:39:32;4.07;;;1.20;;
71351;SDS011;59159;51.652;4.864;2022-09-01T12:42:04;4.85;;;1.15;;
71351;SDS011;59159;51.652;4.864;2022-09-01T12:47:07;7.07;;;1.17;;
71351;SDS011;59159;51.652;4.864;2022-09-01T12:54:40;5.13;;;1.23;;
71351;SDS011;59159;51.652;4.864;2022-09-01T12:57:06;5.70;;;1.25;;
71351;SDS011;59159;51.652;4.864;2022-09-01T12:59:33;2.97;;;0.80;;
71351;SDS011;59159;51.652;4.864;2022-09-01T13:02:24;4.43;;;1.20;;
71351;SDS011;59159;51.652;4.864;2022-09-01T13:04:45;3.93;;;1.00;;
71351;SDS011;59159;51.652;4.864;2022-09-01T13:07:11;3.63;;;0.90;;
71351;SDS011;59159;51.652;4.864;2022-09-01T13:09:37;2.60;;;0.88;;
71351;SDS011;59159;51.652;4.864;2022-09-01T13:12:10;4.00;;;0.90;;
71351;SDS011;59159;51.652;4.864;2022-09-01T13:14:36;5.18;;;0.90;;
71351;SDS011;59159;51.652;4.864;2022-09-01T13:17:02;4.10;;;1.00;;
71351;SDS011;59159;51.652;4.864;2022-09-01T13:19:29;2.67;;;0.80;;
71351;SDS011;59159;51.652;4.864;2022-09-01T13:21:55;3.95;;;0.93;;
71351;SDS011;59159;51.652;4.864;2022-09-01T13:24:21;7.10;;;1.17;;
71351;SDS011;59159;51.652;4.864;2022-09-01T13:26:47;4.03;;;1.08;;
71351;SDS011;59159;51.652;4.864;2022-09-01T13:29:19;3.17;;;0.93;;
71351;SDS011;59159;51.652;4.864;2022-09-01T13:31:45;3.47;;;1.00;;
71351;SDS011;59159;51.652;4.864;2022-09-01T13:34:11;4.35;;;1.13;;
71351;SDS011;59159;51.652;4.864;2022-09-01T13:36:37;3.23;;;0.80;;
71351;SDS011;59159;51.652;4.864;2022-09-01T13:39:03;3.85;;;0.93;;
71351;SDS011;59159;51.652;4.864;2022-09-01T13:41:29;3.15;;;0.80;;
71351;SDS011;59159;51.652;4.864;2022-09-01T13:43:55;3.43;;;0.90;;
71351;SDS011;59159;51.652;4.864;2022-09-01T13:46:22;3.75;;;1.20;;
71351;SDS011;59159;51.652;4.864;2022-09-01T13:48:48;2.70;;;0.90;;
71351;SDS011;59159;51.652;4.864;2022-09-01T13:51:26;2.33;;;0.80;;
71351;SDS011;59159;51.652;4.864;2022-09-01T13:53:53;4.20;;;1.00;;
71351;SDS011;59159;51.652;4.864;2022-09-01T13:56:19;4.40;;;1.17;;
71351;SDS011;59159;51.652;4.864;2022-09-01T13:58:45;4.40;;;1.17;;
71351;SDS011;59159;51.652;4.864;2022-09-01T14:01:12;3.53;;;1.00;;
71351;SDS011;59159;51.652;4.864;2022-09-01T14:03:39;5.03;;;1.13;;
71351;SDS011;59159;51.652;4.864;2022-09-01T14:06:05;3.40;;;1.00;;
71351;SDS011;59159;51.652;4.864;2022-09-01T14:08:31;4.00;;;0.90;;
71351;SDS011;59159;51.652;4.864;2022-09-01T14:10:58;3.90;;;1.10;;
71351;SDS011;59159;51.652;4.864;2022-09-01T14:13:24;3.88;;;0.98;;
71351;SDS011;59159;51.652;4.864;2022-09-01T14:15:51;3.75;;;1.00;;
71351;SDS011;59159;51.652;4.864;2022-09-01T14:18:17;3.23;;;0.80;;
71351;SDS011;59159;51.652;4.864;2022-09-01T14:20:46;4.03;;;1.42;;
71351;SDS011;59159;51.652;4.864;2022-09-01T14:23:13;3.13;;;0.95;;
71351;SDS011;59159;51.652;4.864;2022-09-01T14:25:44;5.50;;;1.27;;
71351;SDS011;59159;51.652;4.864;2022-09-01T14:28:10;3.95;;;0.90;;
71351;SDS011;59159;51.652;4.864;2022-09-01T14:30:38;6.28;;;1.42;;
71351;SDS011;59159;51.652;4.864;2022-09-01T14:33:05;5.33;;;1.13;;
71351;SDS011;59159;51.652;4.864;2022-09-01T14:35:32;4.78;;;1.00;;
71351;SDS011;59159;51.652;4.864;2022-09-01T14:37:58;4.43;;;1.45;;
71351;SDS011;59159;51.652;4.864;2022-09-01T14:40:24;3.80;;;0.93;;
71351;SDS011;59159;51.652;4.864;2022-09-01T14:42:52;4.17;;;1.27;;
71351;SDS011;59159;51.652;4.864;2022-09-01T14:45:20;3.85;;;1.10;;
71351;SDS011;59159;51.652;4.864;2022-09-01T14:47:48;5.03;;;2.38;;
71351;SDS011;59159;51.652;4.864;2022-09-01T14:50:15;5.47;;;1.20;;
71351;SDS011;59159;51.652;4.864;2022-09-01T14:52:41;4.15;;;1.20;;
71351;SDS011;59159;51.652;4.864;2022-09-01T14:55:07;5.47;;;1.23;;
71351;SDS011;59159;51.652;4.864;2022-09-01T14:57:33;3.53;;;1.07;;
71351;SDS011;59159;51.652;4.864;2022-09-01T14:59:59;5.88;;;1.30;;
71351;SDS011;59159;51.652;4.864;2022-09-01T15:02:26;6.47;;;1.00;;
71351;SDS011;59159;51.652;4.864;2022-09-01T15:04:53;6.18;;;1.40;;
71351;SDS011;59159;51.652;4.864;2022-09-01T15:07:19;3.80;;;1.07;;
71351;SDS011;59159;51.652;4.864;2022-09-01T15:09:45;5.13;;;1.30;;
71351;SDS011;59159;51.652;4.864;2022-09-01T15:12:11;3.97;;;1.30;;
71351;SDS011;59159;51.652;4.864;2022-09-01T15:14:37;4.90;;;1.13;;
71351;SDS011;59159;51.652;4.864;2022-09-01T15:17:04;3.15;;;1.08;;
71351;SDS011;59159;51.652;4.864;2022-09-01T15:19:31;3.88;;;1.20;;
71351;SDS011;59159;51.652;4.864;2022-09-01T15:21:57;5.27;;;1.00;;
71351;SDS011;59159;51.652;4.864;2022-09-01T15:24:23;3.65;;;0.88;;
71351;SDS011;59159;51.652;4.864;2022-09-01T15:26:49;4.70;;;1.92;;
71351;SDS011;59159;51.652;4.864;2022-09-01T15:29:15;3.00;;;0.73;;
71351;SDS011;59159;51.652;4.864;2022-09-01T15:31:41;3.63;;;1.10;;
71351;SDS011;59159;51.652;4.864;2022-09-01T15:34:08;4.90;;;1.10;;
71351;SDS011;59159;51.652;4.864;2022-09-01T15:36:35;5.53;;;0.90;;
71351;SDS011;59159;51.652;4.864;2022-09-01T15:39:03;3.43;;;1.10;;
71351;SDS011;59159;51.652;4.864;2022-09-01T15:41:30;3.53;;;1.00;;
71351;SDS011;59159;51.652;4.864;2022-09-01T15:43:57;6.00;;;1.10;;
71351;SDS011;59159;51.652;4.864;2022-09-01T15:46:24;4.17;;;0.97;;
71351;SDS011;59159;51.652;4.864;2022-09-01T15:48:56;3.70;;;0.90;;
71351;SDS011;59159;51.652;4.864;2022-09-01T15:51:26;4.82;;;1.27;;
71351;SDS011;59159;51.652;4.864;2022-09-01T15:53:55;4.22;;;1.10;;
71351;SDS011;59159;51.652;4.864;2022-09-01T15:56:22;3.23;;;1.00;;
71351;SDS011;59159;51.652;4.864;2022-09-01T15:58:48;3.28;;;1.02;;
71351;SDS011;59159;51.652;4.864;2022-09-01T16:01:15;5.45;;;1.10;;
71351;SDS011;59159;51.652;4.864;2022-09-01T16:03:41;3.90;;;0.90;;